sensor_id;sensor_type;location;lat;lon;timestamp;pressure;altitude;pressure_sealevel;temperature;humidity
73016;BME280;61893;50.074;14.440;2024-03-22T00:01:20;98998.22;;;7.64;87.60
73016;BME280;61893;50.074;14.440;2024-03-22T00:03:46;99001.47;;;7.68;87.26
73016;BME280;61893;50.074;14.440;2024-03-22T00:06:12;98995.31;;;7.67;87.79
73016;BME280;61893;50.074;14.440;2024-03-22T00:08:41;99005.03;;;7.78;87.02
73016;BME280;61893;50.074;14.440;2024-03-22T00:11:07;98995.06;;;7.71;87.44
73016;BME280;61893;50.074;14.440;2024-03-22T00:13:33;98996.63;;;7.84;87.02
73016;BME280;61893;50.074;14.440;2024-03-22T00:15:59;98987.13;;;7.82;86.79
73016;BME280;61893;50.074;14.440;2024-03-22T00:18:36;98992.63;;;7.90;86.13
73016;BME280;61893;50.074;14.440;2024-03-22T00:21:02;98990.31;;;7.97;85.96
73016;BME280;61893;50.074;14.440;2024-03-22T00:23:28;98983.44;;;8.05;85.01
73016;BME280;61893;50.074;14.440;2024-03-22T00:25:56;98985.00;;;8.08;85.16
73016;BME280;61893;50.074;14.440;2024-03-22T00:28:21;98990.66;;;8.03;85.18
73016;BME280;61893;50.074;14.440;2024-03-22T00:30:47;98985.97;;;8.07;85.27
73016;BME280;61893;50.074;14.440;2024-03-22T00:33:13;98977.00;;;8.19;85.08
73016;BME280;61893;50.074;14.440;2024-03-22T00:35:39;98980.22;;;8.23;84.77
73016;BME280;61893;50.074;14.440;2024-03-22T00:38:05;98984.84;;;8.09;85.84
73016;BME280;61893;50.074;14.440;2024-03-22T00:40:32;98979.66;;;8.19;85.48
73016;BME280;61893;50.074;14.440;2024-03-22T00:42:58;98979.44;;;8.11;86.43
73016;BME280;61893;50.074;14.440;2024-03-22T00:45:25;98980.81;;;8.26;85.70
73016;BME280;61893;50.074;14.440;2024-03-22T00:47:51;98983.88;;;8.22;85.77
73016;BME280;61893;50.074;14.440;2024-03-22T00:50:17;98978.31;;;8.25;85.76
73016;BME280;61893;50.074;14.440;2024-03-22T00:52:42;98979.25;;;8.24;85.51
73016;BME280;61893;50.074;14.440;2024-03-22T00:55:09;98974.59;;;8.16;86.50
73016;BME280;61893;50.074;14.440;2024-03-22T00:57:34;98971.19;;;8.25;85.92
73016;BME280;61893;50.074;14.440;2024-03-22T01:00:01;98966.63;;;8.27;86.01
73016;BME280;61893;50.074;14.440;2024-03-22T01:02:27;98962.78;;;8.20;86.57
73016;BME280;61893;50.074;14.440;2024-03-22T01:04:53;98957.22;;;8.23;86.04
73016;BME280;61893;50.074;14.440;2024-03-22T01:07:19;98956.16;;;8.15;86.92
73016;BME280;61893;50.074;14.440;2024-03-22T01:09:45;98948.91;;;8.28;86.03
73016;BME280;61893;50.074;14.440;2024-03-22T01:12:11;98956.06;;;8.37;85.83
73016;BME280;61893;50.074;14.440;2024-03-22T01:14:37;98954.91;;;8.30;86.12
73016;BME280;61893;50.074;14.440;2024-03-22T01:17:03;98961.16;;;8.40;85.68
73016;BME280;61893;50.074;14.440;2024-03-22T01:19:29;98948.72;;;8.41;85.50
73016;BME280;61893;50.074;14.440;2024-03-22T01:21:55;98959.06;;;8.44;85.21
73016;BME280;61893;50.074;14.440;2024-03-22T01:24:21;98959.47;;;8.39;85.38
73016;BME280;61893;50.074;14.440;2024-03-22T01:26:47;98967.28;;;8.41;85.60
73016;BME280;61893;50.074;14.440;2024-03-22T01:29:14;98969.59;;;8.34;85.96
73016;BME280;61893;50.074;14.440;2024-03-22T01:31:40;98958.25;;;8.32;86.23
73016;BME280;61893;50.074;14.440;2024-03-22T01:34:06;98966.88;;;8.24;86.11
73016;BME280;61893;50.074;14.440;2024-03-22T01:36:32;98961.47;;;8.15;87.00
73016;BME280;61893;50.074;14.440;2024-03-22T01:39:01;98956.75;;;8.18;87.02
73016;BME280;61893;50.074;14.440;2024-03-22T01:41:28;98949.34;;;8.33;86.49
73016;BME280;61893;50.074;14.440;2024-03-22T01:43:54;98949.44;;;8.43;85.61
73016;BME280;61893;50.074;14.440;2024-03-22T01:46:19;98941.16;;;8.36;85.62
73016;BME280;61893;50.074;14.440;2024-03-22T01:48:45;98939.00;;;8.30;86.38
73016;BME280;61893;50.074;14.440;2024-03-22T01:51:12;98940.09;;;8.27;86.03
73016;BME280;61893;50.074;14.440;2024-03-22T01:53:38;98953.91;;;8.42;85.94
73016;BME280;61893;50.074;14.440;2024-03-22T01:56:06;98946.72;;;8.33;86.53
73016;BME280;61893;50.074;14.440;2024-03-22T01:58:47;98942.22;;;8.45;85.91
73016;BME280;61893;50.074;14.440;2024-03-22T02:01:19;98939.31;;;8.37;85.87
73016;BME280;61893;50.074;14.440;2024-03-22T02:03:48;98936.31;;;8.41;85.32
73016;BME280;61893;50.074;14.440;2024-03-22T02:06:13;98939.44;;;8.35;85.65
73016;BME280;61893;50.074;14.440;2024-03-22T02:08:41;98926.19;;;8.35;85.27
73016;BME280;61893;50.074;14.440;2024-03-22T02:11:08;98925.00;;;8.39;85.42
73016;BME280;61893;50.074;14.440;2024-03-22T02:13:35;98922.22;;;8.41;85.13
73016;BME280;61893;50.074;14.440;2024-03-22T02:16:04;98915.72;;;8.33;86.02
73016;BME280;61893;50.074;14.440;2024-03-22T02:18:31;98916.66;;;8.44;85.10
73016;BME280;61893;50.074;14.440;2024-03-22T02:20:57;98913.72;;;8.47;85.19
73016;BME280;61893;50.074;14.440;2024-03-22T02:23:40;98909.84;;;8.30;86.05
73016;BME280;61893;50.074;14.440;2024-03-22T02:26:07;98902.69;;;8.42;85.54
73016;BME280;61893;50.074;14.440;2024-03-22T02:28:53;98897.44;;;8.30;85.84
73016;BME280;61893;50.074;14.440;2024-03-22T02:31:40;98897.59;;;8.18;87.00
73016;BME280;61893;50.074;14.440;2024-03-22T02:34:11;98885.13;;;8.29;86.12
73016;BME280;61893;50.074;14.440;2024-03-22T02:36:37;98885.31;;;8.38;85.62
73016;BME280;61893;50.074;14.440;2024-03-22T02:39:16;98874.13;;;8.34;85.88
73016;BME280;61893;50.074;14.440;2024-03-22T02:41:42;98862.81;;;8.32;86.29
73016;BME280;61893;50.074;14.440;2024-03-22T02:44:08;98861.69;;;8.46;84.76
73016;BME280;61893;50.074;14.440;2024-03-22T02:46:36;98853.56;;;8.26;85.94
73016;BME280;61893;50.074;14.440;2024-03-22T02:49:06;98849.56;;;8.32;85.91
73016;BME280;61893;50.074;14.440;2024-03-22T02:51:32;98856.88;;;8.19;86.35
73016;BME280;61893;50.074;14.440;2024-03-22T02:54:01;98846.66;;;8.14;86.83
73016;BME280;61893;50.074;14.440;2024-03-22T02:56:30;98843.22;;;8.23;86.85
73016;BME280;61893;50.074;14.440;2024-03-22T02:58:56;98850.41;;;8.11;87.34
73016;BME280;61893;50.074;14.440;2024-03-22T03:01:22;98848.94;;;8.19;87.11
73016;BME280;61893;50.074;14.440;2024-03-22T03:03:48;98845.75;;;8.25;86.39
73016;BME280;61893;50.074;14.440;2024-03-22T03:06:14;98843.41;;;8.31;86.58
73016;BME280;61893;50.074;14.440;2024-03-22T03:08:49;98849.84;;;8.08;88.10
73016;BME280;61893;50.074;14.440;2024-03-22T03:11:20;98833.41;;;7.93;89.43
73016;BME280;61893;50.074;14.440;2024-03-22T03:14:04;98831.72;;;7.92;89.95
73016;BME280;61893;50.074;14.440;2024-03-22T03:16:49;98839.84;;;7.79;91.08
73016;BME280;61893;50.074;14.440;2024-03-22T03:19:22;98824.84;;;7.68;91.76
73016;BME280;61893;50.074;14.440;2024-03-22T03:21:48;98830.72;;;7.72;91.08
73016;BME280;61893;50.074;14.440;2024-03-22T03:24:37;98815.69;;;7.73;91.69
73016;BME280;61893;50.074;14.440;2024-03-22T03:27:18;98812.59;;;7.67;92.16
73016;BME280;61893;50.074;14.440;2024-03-22T03:29:44;98811.28;;;7.83;91.42
73016;BME280;61893;50.074;14.440;2024-03-22T03:32:13;98805.69;;;7.76;91.68
73016;BME280;61893;50.074;14.440;2024-03-22T03:34:39;98809.78;;;7.69;92.20
73016;BME280;61893;50.074;14.440;2024-03-22T03:37:05;98820.75;;;7.76;91.73
73016;BME280;61893;50.074;14.440;2024-03-22T03:39:35;98817.22;;;7.75;91.93
73016;BME280;61893;50.074;14.440;2024-03-22T03:42:04;98818.66;;;7.58;92.95
73016;BME280;61893;50.074;14.440;2024-03-22T03:44:53;98822.56;;;7.64;92.77
73016;BME280;61893;50.074;14.440;2024-03-22T03:47:25;98811.66;;;7.57;93.13
73016;BME280;61893;50.074;14.440;2024-03-22T03:49:51;98809.31;;;7.64;92.77
73016;BME280;61893;50.074;14.440;2024-03-22T03:52:17;98816.00;;;7.58;92.88
73016;BME280;61893;50.074;14.440;2024-03-22T03:55:06;98812.94;;;7.63;93.66
73016;BME280;61893;50.074;14.440;2024-03-22T03:57:35;98812.22;;;7.61;93.38
73016;BME280;61893;50.074;14.440;2024-03-22T04:00:02;98815.28;;;7.56;94.26
73016;BME280;61893;50.074;14.440;2024-03-22T04:02:28;98807.34;;;7.56;94.14
73016;BME280;61893;50.074;14.440;2024-03-22T04:04:54;98804.00;;;7.43;94.62
73016;BME280;61893;50.074;14.440;2024-03-22T04:07:31;98806.31;;;7.36;95.67
73016;BME280;61893;50.074;14.440;2024-03-22T04:09:57;98802.66;;;7.16;97.11
73016;BME280;61893;50.074;14.440;2024-03-22T04:12:23;98801.16;;;7.23;96.52
73016;BME280;61893;50.074;14.440;2024-03-22T04:14:49;98804.28;;;7.29;96.50
73016;BME280;61893;50.074;14.440;2024-03-22T04:17:15;98809.69;;;7.38;96.17
73016;BME280;61893;50.074;14.440;2024-03-22T04:19:41;98802.38;;;7.31;96.24
73016;BME280;61893;50.074;14.440;2024-03-22T04:22:07;98802.19;;;7.43;95.84
73016;BME280;61893;50.074;14.440;2024-03-22T04:24:33;98797.16;;;7.40;95.54
73016;BME280;61893;50.074;14.440;2024-03-22T04:26:59;98803.88;;;7.44;95.68
73016;BME280;61893;50.074;14.440;2024-03-22T04:29:25;98799.69;;;7.42;96.11
73016;BME280;61893;50.074;14.440;2024-03-22T04:31:52;98798.38;;;7.36;95.86
73016;BME280;61893;50.074;14.440;2024-03-22T04:34:20;98795.00;;;7.34;95.93
73016;BME280;61893;50.074;14.440;2024-03-22T04:36:48;98799.22;;;7.37;95.41
73016;BME280;61893;50.074;14.440;2024-03-22T04:39:17;98801.16;;;7.23;96.60
73016;BME280;61893;50.074;14.440;2024-03-22T04:41:43;98802.97;;;7.23;97.17
73016;BME280;61893;50.074;14.440;2024-03-22T04:44:09;98807.03;;;7.38;95.67
73016;BME280;61893;50.074;14.440;2024-03-22T04:46:35;98810.53;;;7.39;95.13
73016;BME280;61893;50.074;14.440;2024-03-22T04:49:01;98802.59;;;7.39;94.46
73016;BME280;61893;50.074;14.440;2024-03-22T04:51:27;98806.94;;;7.29;95.00
73016;BME280;61893;50.074;14.440;2024-03-22T04:53:53;98804.53;;;7.26;94.72
73016;BME280;61893;50.074;14.440;2024-03-22T04:56:19;98803.81;;;7.23;94.78
73016;BME280;61893;50.074;14.440;2024-03-22T04:59:16;98802.63;;;7.28;94.75
73016;BME280;61893;50.074;14.440;2024-03-22T05:01:48;98797.09;;;7.19;94.51
73016;BME280;61893;50.074;14.440;2024-03-22T05:04:17;98801.63;;;7.29;93.96
73016;BME280;61893;50.074;14.440;2024-03-22T05:06:51;98793.50;;;7.09;94.57
73016;BME280;61893;50.074;14.440;2024-03-22T05:09:18;98789.88;;;7.21;93.79
73016;BME280;61893;50.074;14.440;2024-03-22T05:11:44;98791.47;;;7.13;94.00
73016;BME280;61893;50.074;14.440;2024-03-22T05:14:19;98789.50;;;7.26;92.92
73016;BME280;61893;50.074;14.440;2024-03-22T05:16:51;98789.63;;;7.25;93.17
73016;BME280;61893;50.074;14.440;2024-03-22T05:19:20;98788.53;;;7.27;92.49
73016;BME280;61893;50.074;14.440;2024-03-22T05:21:49;98796.84;;;7.22;92.89
73016;BME280;61893;50.074;14.440;2024-03-22T05:24:18;98798.31;;;7.15;93.43
73016;BME280;61893;50.074;14.440;2024-03-22T05:26:44;98808.16;;;7.25;93.00
73016;BME280;61893;50.074;14.440;2024-03-22T05:29:29;98802.25;;;7.21;93.18
73016;BME280;61893;50.074;14.440;2024-03-22T05:31:55;98803.56;;;7.27;92.67
73016;BME280;61893;50.074;14.440;2024-03-22T05:34:26;98804.91;;;7.21;92.59
73016;BME280;61893;50.074;14.440;2024-03-22T05:36:56;98804.47;;;7.16;93.07
73016;BME280;61893;50.074;14.440;2024-03-22T05:39:30;98812.41;;;7.05;94.09
73016;BME280;61893;50.074;14.440;2024-03-22T05:41:59;98807.13;;;7.05;93.50
73016;BME280;61893;50.074;14.440;2024-03-22T05:44:45;98803.38;;;7.18;92.46
73016;BME280;61893;50.074;14.440;2024-03-22T05:47:14;98805.66;;;7.12;92.29
73016;BME280;61893;50.074;14.440;2024-03-22T05:49:46;98796.84;;;7.22;91.68
73016;BME280;61893;50.074;14.440;2024-03-22T05:52:16;98806.16;;;7.06;92.42
73016;BME280;61893;50.074;14.440;2024-03-22T05:55:14;98795.88;;;7.23;91.22
73016;BME280;61893;50.074;14.440;2024-03-22T05:58:09;98795.00;;;7.34;90.61
73016;BME280;61893;50.074;14.440;2024-03-22T06:00:55;98788.28;;;7.62;89.47
73016;BME280;61893;50.074;14.440;2024-03-22T06:03:41;98793.63;;;7.51;88.86
73016;BME280;61893;50.074;14.440;2024-03-22T06:06:10;98797.56;;;7.57;88.48
73016;BME280;61893;50.074;14.440;2024-03-22T06:08:43;98792.78;;;7.51;88.39
73016;BME280;61893;50.074;14.440;2024-03-22T06:11:11;98789.22;;;7.73;87.37
73016;BME280;61893;50.074;14.440;2024-03-22T06:13:49;98797.22;;;7.82;87.18
73016;BME280;61893;50.074;14.440;2024-03-22T06:16:25;98791.09;;;7.82;86.56
73016;BME280;61893;50.074;14.440;2024-03-22T06:19:32;98787.97;;;7.98;85.22
73016;BME280;61893;50.074;14.440;2024-03-22T06:22:04;98786.41;;;8.16;84.63
73016;BME280;61893;50.074;14.440;2024-03-22T06:24:30;98787.22;;;8.38;82.99
73016;BME280;61893;50.074;14.440;2024-03-22T06:27:01;98787.47;;;8.96;80.71
73016;BME280;61893;50.074;14.440;2024-03-22T06:30:14;98787.38;;;9.07;78.47
73016;BME280;61893;50.074;14.440;2024-03-22T06:32:43;98785.25;;;10.27;74.15
73016;BME280;61893;50.074;14.440;2024-03-22T06:35:33;98783.59;;;12.34;65.27
73016;BME280;61893;50.074;14.440;2024-03-22T06:37:59;98781.91;;;13.10;60.94
73016;BME280;61893;50.074;14.440;2024-03-22T06:40:28;98788.41;;;14.24;57.08
73016;BME280;61893;50.074;14.440;2024-03-22T06:42:57;98785.94;;;14.86;53.97
73016;BME280;61893;50.074;14.440;2024-03-22T06:45:46;98779.81;;;16.09;50.59
73016;BME280;61893;50.074;14.440;2024-03-22T06:48:21;98786.25;;;16.37;48.53
73016;BME280;61893;50.074;14.440;2024-03-22T06:50:50;98780.78;;;17.77;45.56
73016;BME280;61893;50.074;14.440;2024-03-22T06:53:20;98777.47;;;17.03;46.18
73016;BME280;61893;50.074;14.440;2024-03-22T06:56:15;98784.34;;;18.90;42.27
73016;BME280;61893;50.074;14.440;2024-03-22T06:59:02;98781.47;;;18.99;40.83
73016;BME280;61893;50.074;14.440;2024-03-22T08:08:25;98714.69;;;15.00;50.06
73016;BME280;61893;50.074;14.440;2024-03-22T08:11:11;98714.38;;;16.69;46.04
73016;BME280;61893;50.074;14.440;2024-03-22T08:19:56;98713.44;;;17.92;42.06
73016;BME280;61893;50.074;14.440;2024-03-22T08:23:09;98706.19;;;18.21;41.24
73016;BME280;61893;50.074;14.440;2024-03-22T08:44:46;98686.38;;;19.38;38.26
73016;BME280;61893;50.074;14.440;2024-03-22T08:50:27;98693.69;;;18.83;38.91
73016;BME280;61893;50.074;14.440;2024-03-22T08:53:48;98688.59;;;17.97;40.86
73016;BME280;61893;50.074;14.440;2024-03-22T08:56:39;98689.63;;;17.46;41.96
73016;BME280;61893;50.074;14.440;2024-03-22T08:59:08;98687.19;;;17.51;42.77
73016;BME280;61893;50.074;14.440;2024-03-22T09:07:13;98662.88;;;17.02;43.62
73016;BME280;61893;50.074;14.440;2024-03-22T09:18:48;98634.91;;;17.61;42.79
73016;BME280;61893;50.074;14.440;2024-03-22T09:21:17;98637.09;;;18.07;41.92
73016;BME280;61893;50.074;14.440;2024-03-22T09:23:43;98632.47;;;17.94;41.96
73016;BME280;61893;50.074;14.440;2024-03-22T09:28:57;98632.53;;;18.42;40.69
73016;BME280;61893;50.074;14.440;2024-03-22T09:44:00;98624.41;;;18.35;40.54
73016;BME280;61893;50.074;14.440;2024-03-22T09:53:49;98628.25;;;18.19;40.79
73016;BME280;61893;50.074;14.440;2024-03-22T09:59:07;98614.69;;;17.99;41.21
73016;BME280;61893;50.074;14.440;2024-03-22T10:08:15;98607.31;;;17.30;42.25
73016;BME280;61893;50.074;14.440;2024-03-22T10:14:15;98604.06;;;17.14;42.58
73016;BME280;61893;50.074;14.440;2024-03-22T10:28:30;98596.72;;;18.07;35.91
73016;BME280;61893;50.074;14.440;2024-03-22T10:31:25;98591.69;;;17.41;36.43
73016;BME280;61893;50.074;14.440;2024-03-22T10:34:13;98586.78;;;17.51;37.05
73016;BME280;61893;50.074;14.440;2024-03-22T10:42:29;98584.09;;;17.23;37.54
73016;BME280;61893;50.074;14.440;2024-03-22T10:45:16;98575.44;;;17.27;38.89
73016;BME280;61893;50.074;14.440;2024-03-22T10:48:07;98572.13;;;17.53;36.86
73016;BME280;61893;50.074;14.440;2024-03-22T10:50:48;98572.72;;;18.12;36.25
73016;BME280;61893;50.074;14.440;2024-03-22T12:41:19;98408.81;;;17.06;42.03
73016;BME280;61893;50.074;14.440;2024-03-22T12:44:05;98398.97;;;16.63;42.93
73016;BME280;61893;50.074;14.440;2024-03-22T12:46:33;98398.53;;;16.60;43.29
73016;BME280;61893;50.074;14.440;2024-03-22T12:56:03;98378.41;;;16.28;44.53
73016;BME280;61893;50.074;14.440;2024-03-22T13:01:42;98377.00;;;16.32;44.22
73016;BME280;61893;50.074;14.440;2024-03-22T13:06:53;98371.19;;;16.78;43.58
73016;BME280;61893;50.074;14.440;2024-03-22T13:09:32;98367.00;;;16.75;43.37
73016;BME280;61893;50.074;14.440;2024-03-22T13:13:21;98368.47;;;16.50;44.03
73016;BME280;61893;50.074;14.440;2024-03-22T13:16:13;98352.50;;;16.41;44.28
73016;BME280;61893;50.074;14.440;2024-03-22T13:21:31;98349.94;;;16.33;44.04
73016;BME280;61893;50.074;14.440;2024-03-22T13:24:36;98347.09;;;16.35;44.21
73016;BME280;61893;50.074;14.440;2024-03-22T13:27:49;98336.00;;;16.73;43.25
73016;BME280;61893;50.074;14.440;2024-03-22T13:31:23;98331.22;;;16.40;43.57
73016;BME280;61893;50.074;14.440;2024-03-22T13:34:54;98329.63;;;16.24;44.10
73016;BME280;61893;50.074;14.440;2024-03-22T13:37:37;98322.53;;;16.38;43.86
73016;BME280;61893;50.074;14.440;2024-03-22T13:41:05;98315.25;;;16.32;43.25
73016;BME280;61893;50.074;14.440;2024-03-22T13:44:06;98313.50;;;16.46;42.71
73016;BME280;61893;50.074;14.440;2024-03-22T13:47:28;98308.03;;;16.60;42.53
73016;BME280;61893;50.074;14.440;2024-03-22T13:50:42;98307.59;;;16.29;43.06
73016;BME280;61893;50.074;14.440;2024-03-22T13:53:47;98301.66;;;16.12;43.28
73016;BME280;61893;50.074;14.440;2024-03-22T13:56:33;98304.22;;;16.20;43.70
73016;BME280;61893;50.074;14.440;2024-03-22T14:02:19;98295.69;;;16.16;43.51
73016;BME280;61893;50.074;14.440;2024-03-22T14:05:33;98282.69;;;16.41;42.67
73016;BME280;61893;50.074;14.440;2024-03-22T14:08:36;98283.69;;;16.12;43.04
73016;BME280;61893;50.074;14.440;2024-03-22T14:11:55;98279.53;;;16.31;42.96
73016;BME280;61893;50.074;14.440;2024-03-22T14:15:01;98269.50;;;16.47;42.24
73016;BME280;61893;50.074;14.440;2024-03-22T14:18:57;98260.66;;;16.25;42.32
73016;BME280;61893;50.074;14.440;2024-03-22T14:21:58;98260.13;;;16.36;42.09
73016;BME280;61893;50.074;14.440;2024-03-22T14:25:35;98257.09;;;16.46;41.74
73016;BME280;61893;50.074;14.440;2024-03-22T14:31:21;98248.00;;;16.12;39.19
73016;BME280;61893;50.074;14.440;2024-03-22T14:34:17;98249.50;;;16.21;38.88
73016;BME280;61893;50.074;14.440;2024-03-22T14:37:07;98241.44;;;16.49;38.05
73016;BME280;61893;50.074;14.440;2024-03-22T14:39:41;98235.56;;;16.39;37.66
73016;BME280;61893;50.074;14.440;2024-03-22T14:42:48;98234.06;;;16.64;38.02
73016;BME280;61893;50.074;14.440;2024-03-22T14:45:46;98237.88;;;16.77;37.32
73016;BME280;61893;50.074;14.440;2024-03-22T14:48:29;98226.53;;;16.81;37.73
73016;BME280;61893;50.074;14.440;2024-03-22T14:50:58;98224.16;;;16.65;37.81
73016;BME280;61893;50.074;14.440;2024-03-22T14:53:39;98217.78;;;16.73;37.94
73016;BME280;61893;50.074;14.440;2024-03-22T14:56:21;98210.66;;;16.52;38.06
73016;BME280;61893;50.074;14.440;2024-03-22T14:59:12;98210.53;;;16.66;37.76
73016;BME280;61893;50.074;14.440;2024-03-22T15:01:54;98209.72;;;16.73;37.84
73016;BME280;61893;50.074;14.440;2024-03-22T15:04:40;98207.34;;;16.50;38.27
73016;BME280;61893;50.074;14.440;2024-03-22T15:07:24;98196.78;;;16.13;39.21
73016;BME280;61893;50.074;14.440;2024-03-22T15:10:12;98195.25;;;15.97;39.35
73016;BME280;61893;50.074;14.440;2024-03-22T15:12:56;98197.09;;;15.97;39.37
73016;BME280;61893;50.074;14.440;2024-03-22T15:15:39;98195.75;;;15.65;40.33
73016;BME280;61893;50.074;14.440;2024-03-22T15:18:24;98193.25;;;15.85;40.01
73016;BME280;61893;50.074;14.440;2024-03-22T15:21:10;98187.28;;;15.83;40.20
73016;BME280;61893;50.074;14.440;2024-03-22T15:24:03;98185.41;;;15.62;40.64
73016;BME280;61893;50.074;14.440;2024-03-22T15:27:05;98192.06;;;15.66;40.53
73016;BME280;61893;50.074;14.440;2024-03-22T15:30:40;98188.47;;;15.59;40.79
73016;BME280;61893;50.074;14.440;2024-03-22T15:33:53;98187.91;;;15.63;40.83
73016;BME280;61893;50.074;14.440;2024-03-22T15:37:12;98184.19;;;15.64;40.96
73016;BME280;61893;50.074;14.440;2024-03-22T15:40:35;98175.53;;;15.41;41.67
73016;BME280;61893;50.074;14.440;2024-03-22T15:43:59;98175.31;;;15.42;41.51
73016;BME280;61893;50.074;14.440;2024-03-22T15:50:00;98171.72;;;15.28;41.62
73016;BME280;61893;50.074;14.440;2024-03-22T15:52:55;98166.34;;;15.28;41.55
73016;BME280;61893;50.074;14.440;2024-03-22T15:55:26;98165.44;;;15.21;41.59
73016;BME280;61893;50.074;14.440;2024-03-22T15:57:57;98164.78;;;15.19;41.67
73016;BME280;61893;50.074;14.440;2024-03-22T16:00:25;98167.69;;;15.18;41.71
73016;BME280;61893;50.074;14.440;2024-03-22T16:03:01;98163.16;;;15.18;41.92
73016;BME280;61893;50.074;14.440;2024-03-22T16:06:05;98159.06;;;15.01;41.71
73016;BME280;61893;50.074;14.440;2024-03-22T16:09:11;98155.81;;;15.05;42.25
73016;BME280;61893;50.074;14.440;2024-03-22T16:12:51;98165.28;;;14.86;42.78
73016;BME280;61893;50.074;14.440;2024-03-22T16:16:05;98153.97;;;14.70;44.23
73016;BME280;61893;50.074;14.440;2024-03-22T16:19:35;98159.25;;;14.63;44.99
73016;BME280;61893;50.074;14.440;2024-03-22T16:23:02;98154.16;;;14.38;45.84
73016;BME280;61893;50.074;14.440;2024-03-22T16:25:54;98151.03;;;14.35;46.34
73016;BME280;61893;50.074;14.440;2024-03-22T16:28:37;98142.56;;;14.16;46.66
73016;BME280;61893;50.074;14.440;2024-03-22T16:31:18;98140.44;;;14.12;47.08
73016;BME280;61893;50.074;14.440;2024-03-22T16:34:00;98143.75;;;14.14;47.21
73016;BME280;61893;50.074;14.440;2024-03-22T16:37:53;98143.84;;;14.20;47.29
73016;BME280;61893;50.074;14.440;2024-03-22T16:41:04;98136.09;;;14.11;47.68
73016;BME280;61893;50.074;14.440;2024-03-22T16:43:49;98137.38;;;14.00;47.94
73016;BME280;61893;50.074;14.440;2024-03-22T16:46:20;98139.94;;;13.93;48.25
73016;BME280;61893;50.074;14.440;2024-03-22T16:48:46;98137.00;;;14.03;48.02
73016;BME280;61893;50.074;14.440;2024-03-22T16:51:16;98133.03;;;13.99;48.45
73016;BME280;61893;50.074;14.440;2024-03-22T16:53:43;98140.88;;;13.86;48.53
73016;BME280;61893;50.074;14.440;2024-03-22T17:04:13;98129.50;;;13.69;49.37
73016;BME280;61893;50.074;14.440;2024-03-22T17:06:42;98137.81;;;13.74;49.24
73016;BME280;61893;50.074;14.440;2024-03-22T17:09:10;98132.72;;;13.64;49.84
73016;BME280;61893;50.074;14.440;2024-03-22T17:11:40;98131.78;;;13.57;50.22
73016;BME280;61893;50.074;14.440;2024-03-22T17:14:06;98127.09;;;13.59;50.28
73016;BME280;61893;50.074;14.440;2024-03-22T17:16:47;98122.00;;;13.49;50.32
73016;BME280;61893;50.074;14.440;2024-03-22T17:19:33;98125.63;;;13.57;50.30
73016;BME280;61893;50.074;14.440;2024-03-22T17:23:19;98123.75;;;13.42;50.64
73016;BME280;61893;50.074;14.440;2024-03-22T17:26:20;98123.16;;;13.32;51.14
73016;BME280;61893;50.074;14.440;2024-03-22T17:29:07;98117.72;;;13.25;51.29
73016;BME280;61893;50.074;14.440;2024-03-22T17:32:32;98125.03;;;13.23;51.28
73016;BME280;61893;50.074;14.440;2024-03-22T17:35:56;98123.44;;;13.37;51.06
73016;BME280;61893;50.074;14.440;2024-03-22T17:39:09;98132.63;;;13.12;51.92
73016;BME280;61893;50.074;14.440;2024-03-22T17:42:39;98126.56;;;13.18;52.05
73016;BME280;61893;50.074;14.440;2024-03-22T17:46:22;98127.28;;;13.12;52.38
73016;BME280;61893;50.074;14.440;2024-03-22T17:49:39;98125.44;;;13.12;52.61
73016;BME280;61893;50.074;14.440;2024-03-22T17:53:12;98119.22;;;12.97;53.14
73016;BME280;61893;50.074;14.440;2024-03-22T17:56:52;98122.72;;;12.97;53.33
73016;BME280;61893;50.074;14.440;2024-03-22T17:59:50;98121.75;;;12.90;53.57
73016;BME280;61893;50.074;14.440;2024-03-22T18:02:51;98118.25;;;12.90;53.63
73016;BME280;61893;50.074;14.440;2024-03-22T18:05:46;98112.22;;;12.96;53.50
73016;BME280;61893;50.074;14.440;2024-03-22T18:08:34;98111.22;;;12.97;53.68
73016;BME280;61893;50.074;14.440;2024-03-22T18:11:29;98105.56;;;12.92;53.75
73016;BME280;61893;50.074;14.440;2024-03-22T18:14:17;98104.69;;;12.99;53.61
73016;BME280;61893;50.074;14.440;2024-03-22T18:17:15;98110.38;;;12.96;53.93
73016;BME280;61893;50.074;14.440;2024-03-22T18:20:02;98096.19;;;12.96;54.13
73016;BME280;61893;50.074;14.440;2024-03-22T18:22:58;98099.03;;;12.94;54.16
73016;BME280;61893;50.074;14.440;2024-03-22T18:26:02;98103.00;;;12.98;54.21
73016;BME280;61893;50.074;14.440;2024-03-22T18:29:19;98101.41;;;12.89;54.41
73016;BME280;61893;50.074;14.440;2024-03-22T18:33:19;98093.41;;;12.89;54.71
73016;BME280;61893;50.074;14.440;2024-03-22T18:37:09;98089.97;;;12.80;55.05
73016;BME280;61893;50.074;14.440;2024-03-22T18:40:19;98087.75;;;12.84;55.08
73016;BME280;61893;50.074;14.440;2024-03-22T18:43:29;98080.56;;;12.84;55.49
73016;BME280;61893;50.074;14.440;2024-03-22T18:46:34;98074.31;;;12.77;55.67
73016;BME280;61893;50.074;14.440;2024-03-22T18:50:14;98069.25;;;12.82;55.78
73016;BME280;61893;50.074;14.440;2024-03-22T18:53:17;98059.22;;;12.84;55.98
73016;BME280;61893;50.074;14.440;2024-03-22T18:56:40;98062.38;;;12.88;56.06
73016;BME280;61893;50.074;14.440;2024-03-22T18:59:37;98063.09;;;12.82;57.26
73016;BME280;61893;50.074;14.440;2024-03-22T19:02:40;98056.06;;;12.81;57.07
73016;BME280;61893;50.074;14.440;2024-03-22T19:05:46;98055.41;;;12.79;57.76
73016;BME280;61893;50.074;14.440;2024-03-22T19:09:01;98044.94;;;12.77;57.81
73016;BME280;61893;50.074;14.440;2024-03-22T19:12:04;98036.03;;;12.85;58.69
73016;BME280;61893;50.074;14.440;2024-03-22T19:15:55;98039.13;;;12.74;58.54
73016;BME280;61893;50.074;14.440;2024-03-22T19:21:45;98031.41;;;12.79;59.29
73016;BME280;61893;50.074;14.440;2024-03-22T19:24:26;98037.03;;;12.84;59.47